sensor_id;sensor_type;location;lat;lon;timestamp;P1;durP1;ratioP1;P2;durP2;ratioP2
44276;SDS011;29973;43.742;1.236;2022-11-20T00:01:47;7.93;;;4.47;;
44276;SDS011;29973;43.742;1.236;2022-11-20T00:04:13;14.40;;;4.95;;
44276;SDS011;29973;43.742;1.236;2022-11-20T00:06:39;12.57;;;4.47;;
44276;SDS011;29973;43.742;1.236;2022-11-20T00:09:05;8.57;;;4.22;;
44276;SDS011;29973;43.742;1.236;2022-11-20T00:11:31;11.02;;;8.05;;
44276;SDS011;29973;43.742;1.236;2022-11-20T00:13:58;8.05;;;5.93;;
44276;SDS011;29973;43.742;1.236;2022-11-20T00:16:26;11.25;;;7.22;;
44276;SDS011;29973;43.742;1.236;2022-11-20T00:18:52;9.93;;;6.20;;
44276;SDS011;29973;43.742;1.236;2022-11-20T00:21:22;10.43;;;6.07;;
44276;SDS011;29973;43.742;1.236;2022-11-20T00:23:49;10.80;;;6.07;;
44276;SDS011;29973;43.742;1.236;2022-11-20T00:26:16;13.10;;;7.85;;
44276;SDS011;29973;43.742;1.236;2022-11-20T00:28:42;13.52;;;7.25;;
44276;SDS011;29973;43.742;1.236;2022-11-20T00:31:13;18.85;;;12.85;;
44276;SDS011;29973;43.742;1.236;2022-11-20T00:33:40;22.07;;;13.27;;
44276;SDS011;29973;43.742;1.236;2022-11-20T00:36:07;19.27;;;13.95;;
44276;SDS011;29973;43.742;1.236;2022-11-20T00:38:33;11.73;;;5.85;;
44276;SDS011;29973;43.742;1.236;2022-11-20T00:41:00;16.58;;;5.38;;
44276;SDS011;29973;43.742;1.236;2022-11-20T00:43:26;14.98;;;10.25;;
44276;SDS011;29973;43.742;1.236;2022-11-20T00:45:59;12.18;;;7.80;;
44276;SDS011;29973;43.742;1.236;2022-11-20T00:48:25;19.25;;;6.88;;
44276;SDS011;29973;43.742;1.236;2022-11-20T00:50:51;11.43;;;7.32;;
44276;SDS011;29973;43.742;1.236;2022-11-20T00:53:18;12.57;;;5.38;;
44276;SDS011;29973;43.742;1.236;2022-11-20T00:55:52;14.55;;;5.22;;
44276;SDS011;29973;43.742;1.236;2022-11-20T00:58:18;9.00;;;4.82;;
44276;SDS011;29973;43.742;1.236;2022-11-20T01:00:44;11.45;;;6.05;;
44276;SDS011;29973;43.742;1.236;2022-11-20T01:03:10;28.75;;;6.28;;
44276;SDS011;29973;43.742;1.236;2022-11-20T01:05:36;15.20;;;5.90;;
44276;SDS011;29973;43.742;1.236;2022-11-20T01:08:02;15.52;;;6.00;;
44276;SDS011;29973;43.742;1.236;2022-11-20T01:10:28;27.85;;;7.05;;
44276;SDS011;29973;43.742;1.236;2022-11-20T01:12:54;19.92;;;6.85;;
44276;SDS011;29973;43.742;1.236;2022-11-20T01:15:39;18.45;;;6.63;;
44276;SDS011;29973;43.742;1.236;2022-11-20T01:18:05;18.40;;;7.65;;
44276;SDS011;29973;43.742;1.236;2022-11-20T01:20:35;17.30;;;8.95;;
44276;SDS011;29973;43.742;1.236;2022-11-20T01:23:01;26.40;;;10.23;;
44276;SDS011;29973;43.742;1.236;2022-11-20T01:25:27;30.90;;;11.55;;
44276;SDS011;29973;43.742;1.236;2022-11-20T01:27:53;31.63;;;11.30;;
44276;SDS011;29973;43.742;1.236;2022-11-20T01:30:19;24.58;;;9.75;;
44276;SDS011;29973;43.742;1.236;2022-11-20T01:32:45;23.00;;;11.02;;
44276;SDS011;29973;43.742;1.236;2022-11-20T01:35:11;25.60;;;10.93;;
44276;SDS011;29973;43.742;1.236;2022-11-20T01:37:37;74.80;;;12.60;;
44276;SDS011;29973;43.742;1.236;2022-11-20T01:40:03;25.02;;;10.13;;
44276;SDS011;29973;43.742;1.236;2022-11-20T01:42:30;18.15;;;9.05;;
44276;SDS011;29973;43.742;1.236;2022-11-20T01:48:00;23.27;;;9.18;;
44276;SDS011;29973;43.742;1.236;2022-11-20T01:50:26;14.50;;;8.00;;
44276;SDS011;29973;43.742;1.236;2022-11-20T01:53:02;10.95;;;6.13;;
44276;SDS011;29973;43.742;1.236;2022-11-20T01:55:30;11.88;;;6.32;;
44276;SDS011;29973;43.742;1.236;2022-11-20T01:57:57;12.85;;;6.10;;
44276;SDS011;29973;43.742;1.236;2022-11-20T02:00:24;9.52;;;5.53;;
44276;SDS011;29973;43.742;1.236;2022-11-20T02:02:55;14.38;;;6.25;;
44276;SDS011;29973;43.742;1.236;2022-11-20T02:05:24;14.40;;;5.47;;
44276;SDS011;29973;43.742;1.236;2022-11-20T02:07:51;9.23;;;5.63;;
44276;SDS011;29973;43.742;1.236;2022-11-20T02:10:18;12.20;;;5.03;;
44276;SDS011;29973;43.742;1.236;2022-11-20T02:12:44;15.45;;;5.22;;
44276;SDS011;29973;43.742;1.236;2022-11-20T02:15:29;12.18;;;5.65;;
44276;SDS011;29973;43.742;1.236;2022-11-20T02:17:55;56.35;;;7.38;;
44276;SDS011;29973;43.742;1.236;2022-11-20T02:20:21;10.75;;;6.43;;
44276;SDS011;29973;43.742;1.236;2022-11-20T02:22:48;12.13;;;5.90;;
44276;SDS011;29973;43.742;1.236;2022-11-20T02:25:16;12.68;;;6.30;;
44276;SDS011;29973;43.742;1.236;2022-11-20T02:27:43;9.95;;;5.53;;
44276;SDS011;29973;43.742;1.236;2022-11-20T02:30:09;14.18;;;6.30;;
44276;SDS011;29973;43.742;1.236;2022-11-20T02:32:37;9.52;;;5.47;;
44276;SDS011;29973;43.742;1.236;2022-11-20T02:35:38;14.88;;;5.95;;
44276;SDS011;29973;43.742;1.236;2022-11-20T02:37:56;259.92;;;16.50;;
44276;SDS011;29973;43.742;1.236;2022-11-20T02:40:23;14.52;;;6.90;;
44276;SDS011;29973;43.742;1.236;2022-11-20T02:42:53;17.85;;;7.78;;
44276;SDS011;29973;43.742;1.236;2022-11-20T02:45:19;15.45;;;6.72;;
44276;SDS011;29973;43.742;1.236;2022-11-20T02:47:45;15.30;;;6.10;;
44276;SDS011;29973;43.742;1.236;2022-11-20T02:50:11;10.50;;;5.40;;
44276;SDS011;29973;43.742;1.236;2022-11-20T02:52:38;11.07;;;6.07;;
44276;SDS011;29973;43.742;1.236;2022-11-20T02:55:04;11.70;;;5.82;;
44276;SDS011;29973;43.742;1.236;2022-11-20T02:57:30;13.65;;;5.63;;
44276;SDS011;29973;43.742;1.236;2022-11-20T02:59:56;15.45;;;6.70;;
44276;SDS011;29973;43.742;1.236;2022-11-20T03:02:22;10.07;;;5.82;;
44276;SDS011;29973;43.742;1.236;2022-11-20T03:04:48;17.75;;;6.28;;
44276;SDS011;29973;43.742;1.236;2022-11-20T03:07:14;18.45;;;6.68;;
44276;SDS011;29973;43.742;1.236;2022-11-20T03:09:40;10.52;;;6.10;;
44276;SDS011;29973;43.742;1.236;2022-11-20T03:12:06;12.23;;;6.43;;
44276;SDS011;29973;43.742;1.236;2022-11-20T03:14:32;13.55;;;7.03;;
44276;SDS011;29973;43.742;1.236;2022-11-20T03:16:58;13.80;;;6.55;;
44276;SDS011;29973;43.742;1.236;2022-11-20T03:19:24;14.60;;;6.82;;
44276;SDS011;29973;43.742;1.236;2022-11-20T03:21:50;13.80;;;6.35;;
44276;SDS011;29973;43.742;1.236;2022-11-20T03:24:16;10.13;;;6.03;;
44276;SDS011;29973;43.742;1.236;2022-11-20T03:26:42;12.15;;;7.03;;
44276;SDS011;29973;43.742;1.236;2022-11-20T03:29:08;442.40;;;24.17;;
44276;SDS011;29973;43.742;1.236;2022-11-20T03:31:38;23.60;;;7.60;;
44276;SDS011;29973;43.742;1.236;2022-11-20T03:34:08;14.02;;;6.45;;
44276;SDS011;29973;43.742;1.236;2022-11-20T03:36:37;12.32;;;6.30;;
44276;SDS011;29973;43.742;1.236;2022-11-20T03:39:03;13.73;;;6.28;;
44276;SDS011;29973;43.742;1.236;2022-11-20T03:41:30;14.88;;;6.88;;
44276;SDS011;29973;43.742;1.236;2022-11-20T03:43:57;11.10;;;6.53;;
44276;SDS011;29973;43.742;1.236;2022-11-20T03:46:24;14.32;;;5.97;;
44276;SDS011;29973;43.742;1.236;2022-11-20T03:48:50;15.35;;;7.22;;
44276;SDS011;29973;43.742;1.236;2022-11-20T03:51:26;18.85;;;7.30;;
44276;SDS011;29973;43.742;1.236;2022-11-20T03:53:53;17.63;;;7.40;;
44276;SDS011;29973;43.742;1.236;2022-11-20T03:56:22;25.83;;;8.45;;
44276;SDS011;29973;43.742;1.236;2022-11-20T03:58:48;14.00;;;6.72;;
44276;SDS011;29973;43.742;1.236;2022-11-20T04:01:15;18.00;;;8.18;;
44276;SDS011;29973;43.742;1.236;2022-11-20T04:03:42;23.23;;;8.13;;
44276;SDS011;29973;43.742;1.236;2022-11-20T04:06:12;23.95;;;9.20;;
44276;SDS011;29973;43.742;1.236;2022-11-20T04:08:39;17.92;;;8.65;;
44276;SDS011;29973;43.742;1.236;2022-11-20T04:13:35;14.95;;;7.47;;
44276;SDS011;29973;43.742;1.236;2022-11-20T04:16:01;29.83;;;9.23;;
44276;SDS011;29973;43.742;1.236;2022-11-20T04:18:27;14.77;;;7.95;;
44276;SDS011;29973;43.742;1.236;2022-11-20T04:20:53;17.55;;;8.88;;
44276;SDS011;29973;43.742;1.236;2022-11-20T04:23:19;26.27;;;9.52;;
44276;SDS011;29973;43.742;1.236;2022-11-20T04:25:45;11.85;;;6.93;;
44276;SDS011;29973;43.742;1.236;2022-11-20T04:28:11;15.05;;;7.15;;
44276;SDS011;29973;43.742;1.236;2022-11-20T04:30:37;16.55;;;7.35;;
44276;SDS011;29973;43.742;1.236;2022-11-20T04:33:03;14.40;;;8.00;;
44276;SDS011;29973;43.742;1.236;2022-11-20T04:35:29;13.55;;;6.75;;
44276;SDS011;29973;43.742;1.236;2022-11-20T04:37:55;17.95;;;8.05;;
44276;SDS011;29973;43.742;1.236;2022-11-20T04:40:21;25.60;;;7.60;;
44276;SDS011;29973;43.742;1.236;2022-11-20T04:42:47;19.83;;;7.25;;
44276;SDS011;29973;43.742;1.236;2022-11-20T04:45:13;15.85;;;7.30;;
44276;SDS011;29973;43.742;1.236;2022-11-20T04:47:39;13.55;;;6.80;;
44276;SDS011;29973;43.742;1.236;2022-11-20T04:50:05;14.75;;;7.75;;
44276;SDS011;29973;43.742;1.236;2022-11-20T04:52:31;16.27;;;8.27;;
44276;SDS011;29973;43.742;1.236;2022-11-20T04:54:57;15.98;;;7.28;;
44276;SDS011;29973;43.742;1.236;2022-11-20T04:57:23;17.67;;;7.47;;
44276;SDS011;29973;43.742;1.236;2022-11-20T04:59:49;15.43;;;8.10;;
44276;SDS011;29973;43.742;1.236;2022-11-20T05:02:15;13.75;;;7.93;;
44276;SDS011;29973;43.742;1.236;2022-11-20T05:04:41;16.58;;;7.78;;
44276;SDS011;29973;43.742;1.236;2022-11-20T05:07:07;16.95;;;8.23;;
44276;SDS011;29973;43.742;1.236;2022-11-20T05:09:34;13.82;;;7.43;;
44276;SDS011;29973;43.742;1.236;2022-11-20T05:12:00;18.17;;;8.02;;
44276;SDS011;29973;43.742;1.236;2022-11-20T05:14:26;14.15;;;7.57;;
44276;SDS011;29973;43.742;1.236;2022-11-20T05:16:52;15.02;;;7.20;;
44276;SDS011;29973;43.742;1.236;2022-11-20T05:19:18;18.05;;;6.82;;
44276;SDS011;29973;43.742;1.236;2022-11-20T05:21:44;18.80;;;9.20;;
44276;SDS011;29973;43.742;1.236;2022-11-20T05:24:10;13.38;;;7.53;;
44276;SDS011;29973;43.742;1.236;2022-11-20T05:26:36;19.25;;;8.32;;
44276;SDS011;29973;43.742;1.236;2022-11-20T05:29:02;12.95;;;7.55;;
44276;SDS011;29973;43.742;1.236;2022-11-20T05:31:28;14.70;;;7.35;;
44276;SDS011;29973;43.742;1.236;2022-11-20T05:33:55;15.70;;;7.80;;
44276;SDS011;29973;43.742;1.236;2022-11-20T05:36:21;17.73;;;8.43;;
44276;SDS011;29973;43.742;1.236;2022-11-20T05:38:47;14.23;;;7.25;;
44276;SDS011;29973;43.742;1.236;2022-11-20T05:41:15;22.67;;;8.52;;
44276;SDS011;29973;43.742;1.236;2022-11-20T05:43:43;13.98;;;7.72;;
44276;SDS011;29973;43.742;1.236;2022-11-20T05:46:10;18.75;;;9.02;;
44276;SDS011;29973;43.742;1.236;2022-11-20T05:48:38;16.90;;;8.48;;
44276;SDS011;29973;43.742;1.236;2022-11-20T05:51:05;17.80;;;8.52;;
44276;SDS011;29973;43.742;1.236;2022-11-20T05:53:32;17.13;;;8.25;;
44276;SDS011;29973;43.742;1.236;2022-11-20T05:56:18;16.98;;;7.90;;
44276;SDS011;29973;43.742;1.236;2022-11-20T05:58:44;31.63;;;10.65;;
44276;SDS011;29973;43.742;1.236;2022-11-20T06:01:12;15.98;;;8.60;;
44276;SDS011;29973;43.742;1.236;2022-11-20T06:03:39;17.52;;;9.63;;
44276;SDS011;29973;43.742;1.236;2022-11-20T06:06:05;18.17;;;8.43;;
44276;SDS011;29973;43.742;1.236;2022-11-20T06:08:32;17.10;;;8.80;;
44276;SDS011;29973;43.742;1.236;2022-11-20T06:10:58;13.35;;;7.10;;
44276;SDS011;29973;43.742;1.236;2022-11-20T06:13:24;14.23;;;7.50;;
44276;SDS011;29973;43.742;1.236;2022-11-20T06:15:51;14.90;;;7.78;;
44276;SDS011;29973;43.742;1.236;2022-11-20T06:18:17;13.95;;;7.28;;
44276;SDS011;29973;43.742;1.236;2022-11-20T06:20:43;16.40;;;8.40;;
44276;SDS011;29973;43.742;1.236;2022-11-20T06:23:10;15.45;;;7.25;;
44276;SDS011;29973;43.742;1.236;2022-11-20T06:25:39;13.82;;;8.38;;
44276;SDS011;29973;43.742;1.236;2022-11-20T06:28:06;17.00;;;8.00;;
44276;SDS011;29973;43.742;1.236;2022-11-20T06:30:32;15.65;;;8.32;;
44276;SDS011;29973;43.742;1.236;2022-11-20T06:32:58;12.70;;;7.53;;
44276;SDS011;29973;43.742;1.236;2022-11-20T06:35:24;12.65;;;7.47;;
44276;SDS011;29973;43.742;1.236;2022-11-20T06:37:50;18.48;;;7.45;;
44276;SDS011;29973;43.742;1.236;2022-11-20T06:40:16;17.15;;;8.65;;
44276;SDS011;29973;43.742;1.236;2022-11-20T06:42:42;14.57;;;6.88;;
44276;SDS011;29973;43.742;1.236;2022-11-20T06:45:08;16.08;;;8.38;;
44276;SDS011;29973;43.742;1.236;2022-11-20T06:47:34;20.73;;;9.27;;
44276;SDS011;29973;43.742;1.236;2022-11-20T06:50:00;17.15;;;7.90;;
44276;SDS011;29973;43.742;1.236;2022-11-20T06:52:26;12.43;;;7.15;;
44276;SDS011;29973;43.742;1.236;2022-11-20T06:54:52;13.40;;;7.75;;
44276;SDS011;29973;43.742;1.236;2022-11-20T06:57:18;15.13;;;8.40;;
44276;SDS011;29973;43.742;1.236;2022-11-20T06:59:44;16.83;;;8.60;;
44276;SDS011;29973;43.742;1.236;2022-11-20T07:02:11;14.35;;;7.63;;
44276;SDS011;29973;43.742;1.236;2022-11-20T07:04:37;14.70;;;7.38;;
44276;SDS011;29973;43.742;1.236;2022-11-20T07:07:03;42.08;;;9.57;;
44276;SDS011;29973;43.742;1.236;2022-11-20T07:09:31;19.55;;;9.05;;
44276;SDS011;29973;43.742;1.236;2022-11-20T07:11:57;18.52;;;8.00;;
44276;SDS011;29973;43.742;1.236;2022-11-20T07:14:23;23.30;;;9.70;;
44276;SDS011;29973;43.742;1.236;2022-11-20T07:16:49;23.52;;;10.18;;
44276;SDS011;29973;43.742;1.236;2022-11-20T07:19:15;22.60;;;9.35;;
44276;SDS011;29973;43.742;1.236;2022-11-20T07:21:41;27.23;;;11.68;;
44276;SDS011;29973;43.742;1.236;2022-11-20T07:24:07;26.52;;;11.63;;
44276;SDS011;29973;43.742;1.236;2022-11-20T07:26:33;22.70;;;11.50;;
44276;SDS011;29973;43.742;1.236;2022-11-20T07:28:59;25.85;;;11.30;;
44276;SDS011;29973;43.742;1.236;2022-11-20T07:31:25;21.58;;;10.63;;
44276;SDS011;29973;43.742;1.236;2022-11-20T07:33:51;18.48;;;9.68;;
44276;SDS011;29973;43.742;1.236;2022-11-20T07:36:17;23.80;;;10.77;;
44276;SDS011;29973;43.742;1.236;2022-11-20T07:38:43;21.05;;;11.45;;
44276;SDS011;29973;43.742;1.236;2022-11-20T07:41:09;24.83;;;11.02;;
44276;SDS011;29973;43.742;1.236;2022-11-20T07:43:35;23.13;;;11.43;;
44276;SDS011;29973;43.742;1.236;2022-11-20T07:46:01;21.98;;;11.27;;
44276;SDS011;29973;43.742;1.236;2022-11-20T07:48:28;33.63;;;13.55;;
44276;SDS011;29973;43.742;1.236;2022-11-20T07:50:55;24.27;;;12.63;;
44276;SDS011;29973;43.742;1.236;2022-11-20T07:53:22;21.65;;;11.80;;
44276;SDS011;29973;43.742;1.236;2022-11-20T07:55:48;23.63;;;12.30;;
44276;SDS011;29973;43.742;1.236;2022-11-20T07:58:15;17.45;;;10.20;;
44276;SDS011;29973;43.742;1.236;2022-11-20T08:00:41;24.52;;;10.63;;
44276;SDS011;29973;43.742;1.236;2022-11-20T08:03:07;17.15;;;9.82;;
44276;SDS011;29973;43.742;1.236;2022-11-20T08:05:33;17.95;;;10.05;;
44276;SDS011;29973;43.742;1.236;2022-11-20T08:07:59;16.95;;;9.45;;
44276;SDS011;29973;43.742;1.236;2022-11-20T08:10:25;23.10;;;10.93;;
44276;SDS011;29973;43.742;1.236;2022-11-20T08:12:52;25.63;;;12.02;;
44276;SDS011;29973;43.742;1.236;2022-11-20T08:15:38;24.63;;;12.23;;
44276;SDS011;29973;43.742;1.236;2022-11-20T08:18:11;22.10;;;12.52;;
44276;SDS011;29973;43.742;1.236;2022-11-20T08:20:37;20.45;;;11.23;;
44276;SDS011;29973;43.742;1.236;2022-11-20T08:23:04;20.85;;;12.13;;
44276;SDS011;29973;43.742;1.236;2022-11-20T08:25:31;24.20;;;13.45;;
44276;SDS011;29973;43.742;1.236;2022-11-20T08:27:58;23.58;;;12.95;;
44276;SDS011;29973;43.742;1.236;2022-11-20T08:30:24;22.77;;;12.70;;
44276;SDS011;29973;43.742;1.236;2022-11-20T08:32:50;22.05;;;12.27;;
44276;SDS011;29973;43.742;1.236;2022-11-20T08:35:16;20.63;;;12.65;;
44276;SDS011;29973;43.742;1.236;2022-11-20T08:37:45;19.35;;;11.55;;
44276;SDS011;29973;43.742;1.236;2022-11-20T08:40:11;19.10;;;11.30;;
44276;SDS011;29973;43.742;1.236;2022-11-20T08:42:45;17.48;;;11.75;;
44276;SDS011;29973;43.742;1.236;2022-11-20T08:45:11;20.77;;;12.68;;
44276;SDS011;29973;43.742;1.236;2022-11-20T08:47:37;19.90;;;11.73;;
44276;SDS011;29973;43.742;1.236;2022-11-20T08:50:03;15.45;;;10.32;;
44276;SDS011;29973;43.742;1.236;2022-11-20T08:52:29;18.83;;;11.52;;
44276;SDS011;29973;43.742;1.236;2022-11-20T08:54:55;18.25;;;11.57;;
44276;SDS011;29973;43.742;1.236;2022-11-20T08:57:21;19.70;;;12.32;;
44276;SDS011;29973;43.742;1.236;2022-11-20T08:59:47;19.67;;;11.30;;
44276;SDS011;29973;43.742;1.236;2022-11-20T09:02:13;17.90;;;11.43;;
44276;SDS011;29973;43.742;1.236;2022-11-20T09:04:39;16.55;;;11.15;;
44276;SDS011;29973;43.742;1.236;2022-11-20T09:07:05;13.93;;;9.88;;
44276;SDS011;29973;43.742;1.236;2022-11-20T09:09:31;13.25;;;9.63;;
44276;SDS011;29973;43.742;1.236;2022-11-20T09:11:57;12.48;;;8.90;;
44276;SDS011;29973;43.742;1.236;2022-11-20T09:14:23;10.25;;;7.68;;
44276;SDS011;29973;43.742;1.236;2022-11-20T09:16:54;7.75;;;6.15;;
44276;SDS011;29973;43.742;1.236;2022-11-20T09:19:20;6.47;;;5.82;;
44276;SDS011;29973;43.742;1.236;2022-11-20T09:21:46;8.55;;;5.63;;
44276;SDS011;29973;43.742;1.236;2022-11-20T09:24:12;6.70;;;5.50;;
44276;SDS011;29973;43.742;1.236;2022-11-20T09:26:38;7.65;;;5.88;;
44276;SDS011;29973;43.742;1.236;2022-11-20T09:31:40;7.43;;;5.15;;
44276;SDS011;29973;43.742;1.236;2022-11-20T09:34:06;8.73;;;5.53;;
44276;SDS011;29973;43.742;1.236;2022-11-20T09:36:32;7.18;;;5.25;;
44276;SDS011;29973;43.742;1.236;2022-11-20T09:38:58;8.05;;;6.03;;
44276;SDS011;29973;43.742;1.236;2022-11-20T09:41:46;8.18;;;6.47;;
44276;SDS011;29973;43.742;1.236;2022-11-20T09:44:21;9.30;;;5.40;;
44276;SDS011;29973;43.742;1.236;2022-11-20T09:46:58;9.48;;;5.88;;
44276;SDS011;29973;43.742;1.236;2022-11-20T09:51:58;7.15;;;5.22;;
44276;SDS011;29973;43.742;1.236;2022-11-20T09:54:26;9.57;;;4.88;;
44276;SDS011;29973;43.742;1.236;2022-11-20T09:56:54;8.45;;;4.65;;
44276;SDS011;29973;43.742;1.236;2022-11-20T10:01:59;5.63;;;4.25;;
44276;SDS011;29973;43.742;1.236;2022-11-20T10:04:26;5.88;;;4.05;;
44276;SDS011;29973;43.742;1.236;2022-11-20T10:06:56;6.40;;;4.20;;
44276;SDS011;29973;43.742;1.236;2022-11-20T10:14:52;7.13;;;4.70;;
44276;SDS011;29973;43.742;1.236;2022-11-20T10:22:54;7.78;;;4.72;;
44276;SDS011;29973;43.742;1.236;2022-11-20T10:25:38;5.25;;;4.20;;
44276;SDS011;29973;43.742;1.236;2022-11-20T10:30:41;6.15;;;3.90;;
44276;SDS011;29973;43.742;1.236;2022-11-20T10:36:08;5.50;;;4.45;;
44276;SDS011;29973;43.742;1.236;2022-11-20T10:38:57;5.60;;;4.10;;
44276;SDS011;29973;43.742;1.236;2022-11-20T10:41:28;6.07;;;3.70;;
44276;SDS011;29973;43.742;1.236;2022-11-20T10:44:37;6.25;;;3.85;;
44276;SDS011;29973;43.742;1.236;2022-11-20T10:47:04;7.03;;;3.50;;
44276;SDS011;29973;43.742;1.236;2022-11-20T10:49:30;3.63;;;2.97;;
44276;SDS011;29973;43.742;1.236;2022-11-20T10:51:59;6.63;;;3.95;;
44276;SDS011;29973;43.742;1.236;2022-11-20T10:57:00;4.80;;;3.25;;
44276;SDS011;29973;43.742;1.236;2022-11-20T11:01:53;4.63;;;3.60;;
44276;SDS011;29973;43.742;1.236;2022-11-20T11:06:56;8.73;;;4.10;;
44276;SDS011;29973;43.742;1.236;2022-11-20T11:09:30;5.18;;;3.55;;
44276;SDS011;29973;43.742;1.236;2022-11-20T11:11:58;5.70;;;4.00;;
44276;SDS011;29973;43.742;1.236;2022-11-20T11:14:24;6.38;;;3.90;;
44276;SDS011;29973;43.742;1.236;2022-11-20T11:16:51;7.32;;;4.30;;
44276;SDS011;29973;43.742;1.236;2022-11-20T11:19:17;6.15;;;4.03;;
44276;SDS011;29973;43.742;1.236;2022-11-20T11:21:46;5.53;;;3.83;;
44276;SDS011;29973;43.742;1.236;2022-11-20T11:24:19;5.85;;;3.53;;
44276;SDS011;29973;43.742;1.236;2022-11-20T11:26:55;6.07;;;3.90;;
44276;SDS011;29973;43.742;1.236;2022-11-20T11:29:22;6.43;;;3.70;;
44276;SDS011;29973;43.742;1.236;2022-11-20T11:31:51;4.13;;;3.25;;
44276;SDS011;29973;43.742;1.236;2022-11-20T11:34:28;4.47;;;3.30;;
44276;SDS011;29973;43.742;1.236;2022-11-20T11:36:56;4.93;;;3.33;;
44276;SDS011;29973;43.742;1.236;2022-11-20T11:39:22;5.43;;;3.53;;
44276;SDS011;29973;43.742;1.236;2022-11-20T11:41:49;5.25;;;3.78;;
44276;SDS011;29973;43.742;1.236;2022-11-20T11:44:19;7.93;;;4.10;;
44276;SDS011;29973;43.742;1.236;2022-11-20T11:47:08;6.00;;;3.55;;
44276;SDS011;29973;43.742;1.236;2022-11-20T11:49:35;6.05;;;3.58;;
44276;SDS011;29973;43.742;1.236;2022-11-20T11:54:36;8.73;;;4.78;;
44276;SDS011;29973;43.742;1.236;2022-11-20T11:57:05;7.65;;;4.00;;
44276;SDS011;29973;43.742;1.236;2022-11-20T12:04:54;4.95;;;3.70;;
44276;SDS011;29973;43.742;1.236;2022-11-20T12:09:58;9.93;;;3.28;;
44276;SDS011;29973;43.742;1.236;2022-11-20T12:12:27;8.88;;;3.47;;
44276;SDS011;29973;43.742;1.236;2022-11-20T12:14:56;8.82;;;4.50;;
44276;SDS011;29973;43.742;1.236;2022-11-20T12:17:23;7.65;;;3.63;;
44276;SDS011;29973;43.742;1.236;2022-11-20T12:19:50;6.75;;;3.00;;
44276;SDS011;29973;43.742;1.236;2022-11-20T12:30:12;3.92;;;2.63;;
44276;SDS011;29973;43.742;1.236;2022-11-20T12:42:50;4.78;;;1.27;;
44276;SDS011;29973;43.742;1.236;2022-11-20T13:04:25;4.85;;;3.63;;
44276;SDS011;29973;43.742;1.236;2022-11-20T13:06:57;3.20;;;2.90;;
44276;SDS011;29973;43.742;1.236;2022-11-20T13:09:24;6.90;;;5.60;;
44276;SDS011;29973;43.742;1.236;2022-11-20T13:14:21;8.05;;;6.65;;
44276;SDS011;29973;43.742;1.236;2022-11-20T13:17:13;4.30;;;3.90;;
44276;SDS011;29973;43.742;1.236;2022-11-20T13:19:36;5.25;;;4.63;;
44276;SDS011;29973;43.742;1.236;2022-11-20T13:22:03;7.40;;;5.78;;
44276;SDS011;29973;43.742;1.236;2022-11-20T13:24:30;5.30;;;4.80;;
44276;SDS011;29973;43.742;1.236;2022-11-20T13:26:59;7.65;;;4.45;;
44276;SDS011;29973;43.742;1.236;2022-11-20T13:29:26;6.82;;;6.13;;
44276;SDS011;29973;43.742;1.236;2022-11-20T13:32:00;9.73;;;7.28;;
44276;SDS011;29973;43.742;1.236;2022-11-20T13:34:27;6.10;;;4.97;;
44276;SDS011;29973;43.742;1.236;2022-11-20T13:36:54;8.80;;;5.78;;
44276;SDS011;29973;43.742;1.236;2022-11-20T13:39:24;10.57;;;5.53;;
44276;SDS011;29973;43.742;1.236;2022-11-20T13:41:58;8.07;;;5.13;;
44276;SDS011;29973;43.742;1.236;2022-11-20T13:46:53;5.68;;;5.13;;
44276;SDS011;29973;43.742;1.236;2022-11-20T13:54:44;4.75;;;2.70;;
44276;SDS011;29973;43.742;1.236;2022-11-20T13:57:28;7.32;;;2.28;;
44276;SDS011;29973;43.742;1.236;2022-11-20T13:59:57;4.80;;;2.75;;
44276;SDS011;29973;43.742;1.236;2022-11-20T14:02:25;7.05;;;3.35;;
44276;SDS011;29973;43.742;1.236;2022-11-20T14:04:53;7.45;;;2.40;;
44276;SDS011;29973;43.742;1.236;2022-11-20T14:07:20;9.48;;;2.85;;
44276;SDS011;29973;43.742;1.236;2022-11-20T14:09:54;9.52;;;3.33;;
44276;SDS011;29973;43.742;1.236;2022-11-20T14:12:21;11.95;;;3.70;;
44276;SDS011;29973;43.742;1.236;2022-11-20T14:14:52;12.25;;;3.28;;
44276;SDS011;29973;43.742;1.236;2022-11-20T14:17:19;11.90;;;2.88;;
44276;SDS011;29973;43.742;1.236;2022-11-20T14:19:46;11.05;;;2.58;;
44276;SDS011;29973;43.742;1.236;2022-11-20T14:22:20;14.23;;;3.08;;
44276;SDS011;29973;43.742;1.236;2022-11-20T14:24:48;11.35;;;4.10;;
44276;SDS011;29973;43.742;1.236;2022-11-20T14:27:18;12.20;;;3.03;;
44276;SDS011;29973;43.742;1.236;2022-11-20T14:29:45;11.38;;;4.80;;
44276;SDS011;29973;43.742;1.236;2022-11-20T14:32:14;14.93;;;4.10;;
44276;SDS011;29973;43.742;1.236;2022-11-20T14:34:41;9.77;;;3.92;;
44276;SDS011;29973;43.742;1.236;2022-11-20T14:37:12;10.65;;;4.15;;
44276;SDS011;29973;43.742;1.236;2022-11-20T14:39:46;8.75;;;3.38;;
44276;SDS011;29973;43.742;1.236;2022-11-20T14:42:17;9.55;;;3.58;;
44276;SDS011;29973;43.742;1.236;2022-11-20T14:44:44;16.88;;;3.40;;
44276;SDS011;29973;43.742;1.236;2022-11-20T14:47:13;15.55;;;3.10;;
44276;SDS011;29973;43.742;1.236;2022-11-20T14:49:40;14.27;;;2.65;;
44276;SDS011;29973;43.742;1.236;2022-11-20T14:52:11;12.68;;;3.05;;
44276;SDS011;29973;43.742;1.236;2022-11-20T14:54:49;14.45;;;2.75;;
44276;SDS011;29973;43.742;1.236;2022-11-20T14:59:51;11.82;;;2.85;;
44276;SDS011;29973;43.742;1.236;2022-11-20T15:02:17;14.57;;;3.30;;
44276;SDS011;29973;43.742;1.236;2022-11-20T15:04:50;20.48;;;3.72;;
44276;SDS011;29973;43.742;1.236;2022-11-20T15:07:27;13.93;;;3.00;;
44276;SDS011;29973;43.742;1.236;2022-11-20T15:10:06;18.83;;;3.65;;
44276;SDS011;29973;43.742;1.236;2022-11-20T15:12:33;22.17;;;3.92;;
44276;SDS011;29973;43.742;1.236;2022-11-20T15:15:00;19.50;;;4.15;;
44276;SDS011;29973;43.742;1.236;2022-11-20T15:17:28;17.63;;;3.47;;
44276;SDS011;29973;43.742;1.236;2022-11-20T15:19:54;24.52;;;4.28;;
44276;SDS011;29973;43.742;1.236;2022-11-20T15:22:20;21.35;;;4.97;;
44276;SDS011;29973;43.742;1.236;2022-11-20T15:24:46;22.02;;;4.28;;
44276;SDS011;29973;43.742;1.236;2022-11-20T15:27:12;27.58;;;4.47;;
44276;SDS011;29973;43.742;1.236;2022-11-20T15:29:38;24.13;;;4.60;;
44276;SDS011;29973;43.742;1.236;2022-11-20T15:32:04;21.42;;;4.63;;
44276;SDS011;29973;43.742;1.236;2022-11-20T15:34:30;18.48;;;5.75;;
44276;SDS011;29973;43.742;1.236;2022-11-20T15:36:56;37.85;;;8.55;;
44276;SDS011;29973;43.742;1.236;2022-11-20T15:39:23;22.80;;;5.00;;
44276;SDS011;29973;43.742;1.236;2022-11-20T15:41:49;28.52;;;5.03;;
44276;SDS011;29973;43.742;1.236;2022-11-20T15:44:15;21.48;;;4.40;;
44276;SDS011;29973;43.742;1.236;2022-11-20T15:46:41;14.20;;;4.22;;
44276;SDS011;29973;43.742;1.236;2022-11-20T15:49:13;19.67;;;4.55;;
44276;SDS011;29973;43.742;1.236;2022-11-20T15:51:41;20.63;;;3.83;;
44276;SDS011;29973;43.742;1.236;2022-11-20T15:54:11;20.02;;;4.07;;
44276;SDS011;29973;43.742;1.236;2022-11-20T15:59:06;17.13;;;4.80;;
44276;SDS011;29973;43.742;1.236;2022-11-20T16:01:33;24.90;;;4.15;;
44276;SDS011;29973;43.742;1.236;2022-11-20T16:03:59;18.67;;;3.45;;
44276;SDS011;29973;43.742;1.236;2022-11-20T16:06:26;20.52;;;5.93;;
44276;SDS011;29973;43.742;1.236;2022-11-20T16:08:52;21.55;;;6.93;;
44276;SDS011;29973;43.742;1.236;2022-11-20T16:11:18;26.98;;;6.82;;
44276;SDS011;29973;43.742;1.236;2022-11-20T16:13:44;29.98;;;7.95;;
44276;SDS011;29973;43.742;1.236;2022-11-20T16:16:33;26.10;;;7.60;;
44276;SDS011;29973;43.742;1.236;2022-11-20T16:18:59;31.90;;;10.23;;
44276;SDS011;29973;43.742;1.236;2022-11-20T16:21:28;24.52;;;6.20;;